sensor_id;sensor_type;location;lat;lon;timestamp;temperature;humidity
28747;DHT22;15903;49.008;8.394;2023-03-04T00:01:32;4.50;99.90
28747;DHT22;15903;49.008;8.394;2023-03-04T00:03:58;4.40;99.90
28747;DHT22;15903;49.008;8.394;2023-03-04T00:06:23;4.40;99.90
28747;DHT22;15903;49.008;8.394;2023-03-04T00:08:49;4.30;99.90
28747;DHT22;15903;49.008;8.394;2023-03-04T00:11:14;4.20;99.90
28747;DHT22;15903;49.008;8.394;2023-03-04T00:13:40;4.10;99.90
28747;DHT22;15903;49.008;8.394;2023-03-04T00:16:06;4.10;99.90
28747;DHT22;15903;49.008;8.394;2023-03-04T00:18:31;4.00;99.90
28747;DHT22;15903;49.008;8.394;2023-03-04T00:20:57;4.00;99.90
28747;DHT22;15903;49.008;8.394;2023-03-04T00:23:22;4.00;99.90
28747;DHT22;15903;49.008;8.394;2023-03-04T00:25:48;4.00;99.90
28747;DHT22;15903;49.008;8.394;2023-03-04T00:28:13;4.00;99.90
28747;DHT22;15903;49.008;8.394;2023-03-04T00:30:39;4.10;99.90
28747;DHT22;15903;49.008;8.394;2023-03-04T00:33:05;4.10;99.90
28747;DHT22;15903;49.008;8.394;2023-03-04T00:35:30;4.00;99.90
28747;DHT22;15903;49.008;8.394;2023-03-04T00:37:56;4.00;99.90
28747;DHT22;15903;49.008;8.394;2023-03-04T00:40:21;4.00;99.90
28747;DHT22;15903;49.008;8.394;2023-03-04T00:42:47;3.90;99.90
28747;DHT22;15903;49.008;8.394;2023-03-04T00:45:12;3.90;99.90
28747;DHT22;15903;49.008;8.394;2023-03-04T00:47:38;3.90;99.90
28747;DHT22;15903;49.008;8.394;2023-03-04T00:50:04;3.80;99.90
28747;DHT22;15903;49.008;8.394;2023-03-04T00:52:30;3.80;99.90
28747;DHT22;15903;49.008;8.394;2023-03-04T00:54:55;3.80;99.90
28747;DHT22;15903;49.008;8.394;2023-03-04T00:57:21;3.70;99.90
28747;DHT22;15903;49.008;8.394;2023-03-04T00:59:46;3.70;99.90
28747;DHT22;15903;49.008;8.394;2023-03-04T01:02:12;3.70;99.90
28747;DHT22;15903;49.008;8.394;2023-03-04T01:04:37;3.60;99.90
28747;DHT22;15903;49.008;8.394;2023-03-04T01:07:03;3.50;99.90
28747;DHT22;15903;49.008;8.394;2023-03-04T01:09:29;3.60;99.90
28747;DHT22;15903;49.008;8.394;2023-03-04T01:11:55;3.50;99.90
28747;DHT22;15903;49.008;8.394;2023-03-04T01:14:20;3.50;99.90
28747;DHT22;15903;49.008;8.394;2023-03-04T01:16:46;3.50;99.90
28747;DHT22;15903;49.008;8.394;2023-03-04T01:19:11;3.40;99.90
28747;DHT22;15903;49.008;8.394;2023-03-04T01:21:37;3.40;99.90
28747;DHT22;15903;49.008;8.394;2023-03-04T01:24:02;3.40;99.90
28747;DHT22;15903;49.008;8.394;2023-03-04T01:26:28;3.40;99.90
28747;DHT22;15903;49.008;8.394;2023-03-04T01:28:54;3.40;99.90
28747;DHT22;15903;49.008;8.394;2023-03-04T01:31:19;3.40;99.90
28747;DHT22;15903;49.008;8.394;2023-03-04T01:33:45;3.40;99.90
28747;DHT22;15903;49.008;8.394;2023-03-04T01:36:11;3.40;99.90
28747;DHT22;15903;49.008;8.394;2023-03-04T01:38:37;3.40;99.90
28747;DHT22;15903;49.008;8.394;2023-03-04T01:41:02;3.40;99.90
28747;DHT22;15903;49.008;8.394;2023-03-04T01:43:29;3.40;99.90
28747;DHT22;15903;49.008;8.394;2023-03-04T01:45:56;3.40;99.90
28747;DHT22;15903;49.008;8.394;2023-03-04T01:48:36;3.30;99.90
28747;DHT22;15903;49.008;8.394;2023-03-04T01:51:09;3.30;99.90
28747;DHT22;15903;49.008;8.394;2023-03-04T01:53:36;3.30;99.90
28747;DHT22;15903;49.008;8.394;2023-03-04T01:56:11;3.30;99.90
28747;DHT22;15903;49.008;8.394;2023-03-04T01:58:39;3.30;99.90
28747;DHT22;15903;49.008;8.394;2023-03-04T02:01:04;3.40;99.90
28747;DHT22;15903;49.008;8.394;2023-03-04T02:03:30;3.40;99.90
28747;DHT22;15903;49.008;8.394;2023-03-04T02:05:55;3.40;99.90
28747;DHT22;15903;49.008;8.394;2023-03-04T02:08:23;3.40;99.90
28747;DHT22;15903;49.008;8.394;2023-03-04T02:10:50;3.30;99.90
28747;DHT22;15903;49.008;8.394;2023-03-04T02:13:16;3.30;99.90
28747;DHT22;15903;49.008;8.394;2023-03-04T02:15:44;3.30;99.90
28747;DHT22;15903;49.008;8.394;2023-03-04T02:18:16;3.30;99.90
28747;DHT22;15903;49.008;8.394;2023-03-04T02:23:25;3.30;99.90
28747;DHT22;15903;49.008;8.394;2023-03-04T02:28:41;3.30;99.90
28747;DHT22;15903;49.008;8.394;2023-03-04T02:31:21;3.30;99.90
28747;DHT22;15903;49.008;8.394;2023-03-04T02:33:46;3.20;99.90
28747;DHT22;15903;49.008;8.394;2023-03-04T02:36:12;3.20;99.90
28747;DHT22;15903;49.008;8.394;2023-03-04T02:38:38;3.20;99.90
28747;DHT22;15903;49.008;8.394;2023-03-04T02:41:04;3.20;99.90
28747;DHT22;15903;49.008;8.394;2023-03-04T02:43:29;3.20;99.90
28747;DHT22;15903;49.008;8.394;2023-03-04T02:45:55;3.20;99.90
28747;DHT22;15903;49.008;8.394;2023-03-04T02:48:21;3.10;99.90
28747;DHT22;15903;49.008;8.394;2023-03-04T02:50:52;3.20;99.90
28747;DHT22;15903;49.008;8.394;2023-03-04T02:53:19;3.10;99.90
28747;DHT22;15903;49.008;8.394;2023-03-04T02:55:45;3.10;99.90
28747;DHT22;15903;49.008;8.394;2023-03-04T02:58:11;3.10;99.90
28747;DHT22;15903;49.008;8.394;2023-03-04T03:00:37;3.10;99.90
28747;DHT22;15903;49.008;8.394;2023-03-04T03:03:03;3.10;99.90
28747;DHT22;15903;49.008;8.394;2023-03-04T03:05:32;3.10;99.90
28747;DHT22;15903;49.008;8.394;2023-03-04T03:07:58;3.10;99.90
28747;DHT22;15903;49.008;8.394;2023-03-04T03:10:24;3.10;99.90
28747;DHT22;15903;49.008;8.394;2023-03-04T03:12:50;3.10;99.90
28747;DHT22;15903;49.008;8.394;2023-03-04T03:15:16;3.10;99.90
28747;DHT22;15903;49.008;8.394;2023-03-04T03:17:42;3.00;99.90
28747;DHT22;15903;49.008;8.394;2023-03-04T03:20:09;2.90;99.90
28747;DHT22;15903;49.008;8.394;2023-03-04T03:22:35;3.00;99.90
28747;DHT22;15903;49.008;8.394;2023-03-04T03:25:01;2.90;99.90
28747;DHT22;15903;49.008;8.394;2023-03-04T03:27:26;2.90;99.90
28747;DHT22;15903;49.008;8.394;2023-03-04T03:29:52;2.90;99.90
28747;DHT22;15903;49.008;8.394;2023-03-04T03:32:17;2.80;99.90
28747;DHT22;15903;49.008;8.394;2023-03-04T03:34:43;2.80;99.90
28747;DHT22;15903;49.008;8.394;2023-03-04T03:37:09;2.80;99.90
28747;DHT22;15903;49.008;8.394;2023-03-04T03:39:34;2.80;99.90
28747;DHT22;15903;49.008;8.394;2023-03-04T03:42:00;2.80;99.90
28747;DHT22;15903;49.008;8.394;2023-03-04T03:44:25;2.80;99.90
28747;DHT22;15903;49.008;8.394;2023-03-04T03:46:51;2.70;99.90
28747;DHT22;15903;49.008;8.394;2023-03-04T03:49:17;2.70;99.90
28747;DHT22;15903;49.008;8.394;2023-03-04T03:51:42;2.70;99.90
28747;DHT22;15903;49.008;8.394;2023-03-04T03:54:08;2.60;99.90
28747;DHT22;15903;49.008;8.394;2023-03-04T03:56:34;2.60;99.90
28747;DHT22;15903;49.008;8.394;2023-03-04T03:58:59;2.60;99.90
28747;DHT22;15903;49.008;8.394;2023-03-04T04:01:25;2.60;99.90
28747;DHT22;15903;49.008;8.394;2023-03-04T04:03:51;2.50;99.90
28747;DHT22;15903;49.008;8.394;2023-03-04T04:06:17;2.50;99.90
28747;DHT22;15903;49.008;8.394;2023-03-04T04:08:42;2.50;99.90
28747;DHT22;15903;49.008;8.394;2023-03-04T04:11:09;2.50;99.90
28747;DHT22;15903;49.008;8.394;2023-03-04T04:13:34;2.40;99.90
28747;DHT22;15903;49.008;8.394;2023-03-04T04:16:00;2.40;99.90
28747;DHT22;15903;49.008;8.394;2023-03-04T04:18:26;2.40;99.90
28747;DHT22;15903;49.008;8.394;2023-03-04T04:20:52;2.30;99.90
28747;DHT22;15903;49.008;8.394;2023-03-04T04:23:18;2.30;99.90
28747;DHT22;15903;49.008;8.394;2023-03-04T04:25:43;2.30;99.90
28747;DHT22;15903;49.008;8.394;2023-03-04T04:28:09;2.30;99.90
28747;DHT22;15903;49.008;8.394;2023-03-04T04:30:34;2.30;99.90
28747;DHT22;15903;49.008;8.394;2023-03-04T04:33:00;2.30;99.90
28747;DHT22;15903;49.008;8.394;2023-03-04T04:35:29;2.30;99.90
28747;DHT22;15903;49.008;8.394;2023-03-04T04:37:55;2.20;99.90
28747;DHT22;15903;49.008;8.394;2023-03-04T04:40:21;2.20;99.90
28747;DHT22;15903;49.008;8.394;2023-03-04T04:42:47;2.20;99.90
28747;DHT22;15903;49.008;8.394;2023-03-04T04:45:12;2.10;99.90
28747;DHT22;15903;49.008;8.394;2023-03-04T04:47:38;2.00;99.90
28747;DHT22;15903;49.008;8.394;2023-03-04T04:50:04;2.10;99.90
28747;DHT22;15903;49.008;8.394;2023-03-04T04:52:30;2.00;99.90
28747;DHT22;15903;49.008;8.394;2023-03-04T04:54:55;2.00;99.90
28747;DHT22;15903;49.008;8.394;2023-03-04T04:57:21;2.00;99.90
28747;DHT22;15903;49.008;8.394;2023-03-04T04:59:47;2.00;99.90
28747;DHT22;15903;49.008;8.394;2023-03-04T05:02:13;1.90;99.90
28747;DHT22;15903;49.008;8.394;2023-03-04T05:04:38;1.90;99.90
28747;DHT22;15903;49.008;8.394;2023-03-04T05:07:04;1.90;99.90
28747;DHT22;15903;49.008;8.394;2023-03-04T05:09:30;1.90;99.90
28747;DHT22;15903;49.008;8.394;2023-03-04T05:11:55;1.90;99.90
28747;DHT22;15903;49.008;8.394;2023-03-04T05:14:21;1.80;99.90
28747;DHT22;15903;49.008;8.394;2023-03-04T05:16:47;1.80;99.90
28747;DHT22;15903;49.008;8.394;2023-03-04T05:19:12;1.80;99.90
28747;DHT22;15903;49.008;8.394;2023-03-04T05:21:38;1.80;99.90
28747;DHT22;15903;49.008;8.394;2023-03-04T05:24:03;1.90;99.90
28747;DHT22;15903;49.008;8.394;2023-03-04T05:26:29;1.80;99.90
28747;DHT22;15903;49.008;8.394;2023-03-04T05:28:55;1.80;99.90
28747;DHT22;15903;49.008;8.394;2023-03-04T05:31:20;1.70;99.90
28747;DHT22;15903;49.008;8.394;2023-03-04T05:33:46;1.70;99.90
28747;DHT22;15903;49.008;8.394;2023-03-04T05:36:12;1.70;99.90
28747;DHT22;15903;49.008;8.394;2023-03-04T05:38:37;1.70;99.90
28747;DHT22;15903;49.008;8.394;2023-03-04T05:41:05;1.70;99.90
28747;DHT22;15903;49.008;8.394;2023-03-04T05:43:32;1.70;99.90
28747;DHT22;15903;49.008;8.394;2023-03-04T05:46:00;1.60;99.90
28747;DHT22;15903;49.008;8.394;2023-03-04T05:48:26;1.60;99.90
28747;DHT22;15903;49.008;8.394;2023-03-04T05:50:57;1.60;99.90
28747;DHT22;15903;49.008;8.394;2023-03-04T05:53:24;1.60;99.90
28747;DHT22;15903;49.008;8.394;2023-03-04T05:55:50;1.60;99.90
28747;DHT22;15903;49.008;8.394;2023-03-04T05:58:16;1.60;99.90
28747;DHT22;15903;49.008;8.394;2023-03-04T06:00:42;1.50;99.90
28747;DHT22;15903;49.008;8.394;2023-03-04T06:03:16;1.50;99.90
28747;DHT22;15903;49.008;8.394;2023-03-04T06:05:42;1.50;99.90
28747;DHT22;15903;49.008;8.394;2023-03-04T06:08:09;1.50;99.90
28747;DHT22;15903;49.008;8.394;2023-03-04T06:10:35;1.50;99.90
28747;DHT22;15903;49.008;8.394;2023-03-04T06:13:01;1.50;99.90
28747;DHT22;15903;49.008;8.394;2023-03-04T06:15:26;1.50;99.90
28747;DHT22;15903;49.008;8.394;2023-03-04T06:17:52;1.50;99.90
28747;DHT22;15903;49.008;8.394;2023-03-04T06:20:17;1.50;99.90
28747;DHT22;15903;49.008;8.394;2023-03-04T06:22:43;1.60;99.90
28747;DHT22;15903;49.008;8.394;2023-03-04T06:25:09;1.60;99.90
28747;DHT22;15903;49.008;8.394;2023-03-04T06:27:35;1.60;99.90
28747;DHT22;15903;49.008;8.394;2023-03-04T06:30:00;1.70;99.90
28747;DHT22;15903;49.008;8.394;2023-03-04T06:32:26;1.70;99.90
28747;DHT22;15903;49.008;8.394;2023-03-04T06:34:52;1.70;99.90
28747;DHT22;15903;49.008;8.394;2023-03-04T06:37:18;1.80;99.90
28747;DHT22;15903;49.008;8.394;2023-03-04T06:39:44;1.80;99.90
28747;DHT22;15903;49.008;8.394;2023-03-04T06:42:10;1.90;99.90
28747;DHT22;15903;49.008;8.394;2023-03-04T06:44:36;1.90;99.90
28747;DHT22;15903;49.008;8.394;2023-03-04T06:47:01;2.00;99.90
28747;DHT22;15903;49.008;8.394;2023-03-04T06:49:27;2.00;99.90
28747;DHT22;15903;49.008;8.394;2023-03-04T06:51:53;2.00;99.90
28747;DHT22;15903;49.008;8.394;2023-03-04T06:54:18;2.00;99.90
28747;DHT22;15903;49.008;8.394;2023-03-04T06:56:44;2.00;99.90
28747;DHT22;15903;49.008;8.394;2023-03-04T06:59:10;2.10;99.90
28747;DHT22;15903;49.008;8.394;2023-03-04T07:01:35;2.10;99.90
28747;DHT22;15903;49.008;8.394;2023-03-04T07:04:02;2.20;99.90
28747;DHT22;15903;49.008;8.394;2023-03-04T07:06:28;2.30;99.90
28747;DHT22;15903;49.008;8.394;2023-03-04T07:08:55;2.30;99.90
28747;DHT22;15903;49.008;8.394;2023-03-04T07:11:21;2.30;99.90
28747;DHT22;15903;49.008;8.394;2023-03-04T07:13:47;2.30;99.90
28747;DHT22;15903;49.008;8.394;2023-03-04T07:16:16;2.40;99.90
28747;DHT22;15903;49.008;8.394;2023-03-04T07:18:42;2.40;99.90
28747;DHT22;15903;49.008;8.394;2023-03-04T07:21:08;2.50;99.90
28747;DHT22;15903;49.008;8.394;2023-03-04T07:23:35;2.50;99.90
28747;DHT22;15903;49.008;8.394;2023-03-04T07:26:01;2.50;99.90
28747;DHT22;15903;49.008;8.394;2023-03-04T07:28:27;2.50;99.90
28747;DHT22;15903;49.008;8.394;2023-03-04T07:30:52;2.50;99.90
28747;DHT22;15903;49.008;8.394;2023-03-04T07:33:18;2.60;99.90
28747;DHT22;15903;49.008;8.394;2023-03-04T07:35:44;2.60;99.90
28747;DHT22;15903;49.008;8.394;2023-03-04T07:38:09;2.70;99.90
28747;DHT22;15903;49.008;8.394;2023-03-04T07:40:35;2.70;99.90
28747;DHT22;15903;49.008;8.394;2023-03-04T07:43:01;2.70;99.90
28747;DHT22;15903;49.008;8.394;2023-03-04T07:45:27;2.80;99.90
28747;DHT22;15903;49.008;8.394;2023-03-04T07:47:52;2.80;99.90
28747;DHT22;15903;49.008;8.394;2023-03-04T07:50:19;2.90;99.90
28747;DHT22;15903;49.008;8.394;2023-03-04T07:52:46;2.90;99.90
28747;DHT22;15903;49.008;8.394;2023-03-04T07:55:14;3.00;99.90
28747;DHT22;15903;49.008;8.394;2023-03-04T07:57:41;3.00;99.90
28747;DHT22;15903;49.008;8.394;2023-03-04T08:00:09;3.10;99.90
28747;DHT22;15903;49.008;8.394;2023-03-04T08:02:34;3.10;99.90
28747;DHT22;15903;49.008;8.394;2023-03-04T08:05:00;3.20;99.90
28747;DHT22;15903;49.008;8.394;2023-03-04T08:07:25;3.20;99.90
28747;DHT22;15903;49.008;8.394;2023-03-04T08:09:51;3.20;99.90
28747;DHT22;15903;49.008;8.394;2023-03-04T08:12:17;3.20;99.90
28747;DHT22;15903;49.008;8.394;2023-03-04T08:14:43;3.30;99.90
28747;DHT22;15903;49.008;8.394;2023-03-04T08:17:09;3.30;99.90
28747;DHT22;15903;49.008;8.394;2023-03-04T08:19:34;3.30;99.90
28747;DHT22;15903;49.008;8.394;2023-03-04T08:22:01;3.40;99.90
28747;DHT22;15903;49.008;8.394;2023-03-04T08:24:26;3.40;99.90
28747;DHT22;15903;49.008;8.394;2023-03-04T08:26:52;3.40;99.90
28747;DHT22;15903;49.008;8.394;2023-03-04T08:29:20;3.50;99.90
28747;DHT22;15903;49.008;8.394;2023-03-04T08:31:50;3.50;99.90
28747;DHT22;15903;49.008;8.394;2023-03-04T08:34:17;3.40;99.90
28747;DHT22;15903;49.008;8.394;2023-03-04T08:36:43;3.40;99.90
28747;DHT22;15903;49.008;8.394;2023-03-04T08:39:13;3.50;99.90
28747;DHT22;15903;49.008;8.394;2023-03-04T08:41:39;3.60;99.90
28747;DHT22;15903;49.008;8.394;2023-03-04T08:44:05;3.70;99.90
28747;DHT22;15903;49.008;8.394;2023-03-04T08:46:32;3.70;99.90
28747;DHT22;15903;49.008;8.394;2023-03-04T08:48:58;3.80;99.90
28747;DHT22;15903;49.008;8.394;2023-03-04T08:51:24;3.80;99.90
28747;DHT22;15903;49.008;8.394;2023-03-04T08:53:50;3.90;99.90
28747;DHT22;15903;49.008;8.394;2023-03-04T08:56:16;3.90;99.90
28747;DHT22;15903;49.008;8.394;2023-03-04T08:58:42;3.90;99.90
28747;DHT22;15903;49.008;8.394;2023-03-04T09:01:12;4.00;99.90
28747;DHT22;15903;49.008;8.394;2023-03-04T09:03:38;4.00;99.90
28747;DHT22;15903;49.008;8.394;2023-03-04T09:06:05;4.10;99.90
28747;DHT22;15903;49.008;8.394;2023-03-04T09:08:32;4.10;99.90
28747;DHT22;15903;49.008;8.394;2023-03-04T09:10:58;4.20;99.90
28747;DHT22;15903;49.008;8.394;2023-03-04T09:13:25;4.20;99.90
28747;DHT22;15903;49.008;8.394;2023-03-04T09:15:51;4.20;99.90
28747;DHT22;15903;49.008;8.394;2023-03-04T09:18:18;4.30;99.90
28747;DHT22;15903;49.008;8.394;2023-03-04T09:20:46;4.40;99.90
28747;DHT22;15903;49.008;8.394;2023-03-04T09:23:12;4.50;99.90
28747;DHT22;15903;49.008;8.394;2023-03-04T09:25:38;4.60;99.90
28747;DHT22;15903;49.008;8.394;2023-03-04T09:28:05;4.60;99.90
28747;DHT22;15903;49.008;8.394;2023-03-04T09:30:31;4.60;99.90
28747;DHT22;15903;49.008;8.394;2023-03-04T09:32:57;4.70;99.90
28747;DHT22;15903;49.008;8.394;2023-03-04T09:35:23;4.70;99.90
28747;DHT22;15903;49.008;8.394;2023-03-04T09:37:50;4.80;99.90
28747;DHT22;15903;49.008;8.394;2023-03-04T09:40:21;4.80;99.90
28747;DHT22;15903;49.008;8.394;2023-03-04T09:42:56;4.80;99.90
28747;DHT22;15903;49.008;8.394;2023-03-04T09:45:28;4.80;99.90
28747;DHT22;15903;49.008;8.394;2023-03-04T09:47:56;4.80;99.90
28747;DHT22;15903;49.008;8.394;2023-03-04T09:50:22;4.80;99.90
28747;DHT22;15903;49.008;8.394;2023-03-04T09:55:24;4.90;99.90
28747;DHT22;15903;49.008;8.394;2023-03-04T10:01:00;4.90;99.90
28747;DHT22;15903;49.008;8.394;2023-03-04T10:03:42;4.90;99.90
28747;DHT22;15903;49.008;8.394;2023-03-04T10:06:12;5.00;99.90
28747;DHT22;15903;49.008;8.394;2023-03-04T10:11:34;5.00;99.90
28747;DHT22;15903;49.008;8.394;2023-03-04T10:16:52;5.00;99.90
28747;DHT22;15903;49.008;8.394;2023-03-04T10:21:49;5.00;99.90
28747;DHT22;15903;49.008;8.394;2023-03-04T10:24:18;5.00;99.90
28747;DHT22;15903;49.008;8.394;2023-03-04T10:26:51;5.10;99.90
28747;DHT22;15903;49.008;8.394;2023-03-04T10:29:20;5.10;99.90
28747;DHT22;15903;49.008;8.394;2023-03-04T10:31:47;5.20;99.90
28747;DHT22;15903;49.008;8.394;2023-03-04T10:34:15;5.20;99.90
28747;DHT22;15903;49.008;8.394;2023-03-04T10:39:20;5.30;99.90
28747;DHT22;15903;49.008;8.394;2023-03-04T10:41:55;5.30;99.90
28747;DHT22;15903;49.008;8.394;2023-03-04T10:44:22;5.30;99.90
28747;DHT22;15903;49.008;8.394;2023-03-04T10:46:48;5.20;99.90
28747;DHT22;15903;49.008;8.394;2023-03-04T10:49:16;5.30;99.90
28747;DHT22;15903;49.008;8.394;2023-03-04T10:51:51;5.40;99.90
28747;DHT22;15903;49.008;8.394;2023-03-04T10:54:35;5.40;99.90
28747;DHT22;15903;49.008;8.394;2023-03-04T10:57:11;5.40;99.90
28747;DHT22;15903;49.008;8.394;2023-03-04T10:59:43;5.50;99.90
28747;DHT22;15903;49.008;8.394;2023-03-04T11:02:14;5.50;99.90
28747;DHT22;15903;49.008;8.394;2023-03-04T11:04:40;5.60;99.90
28747;DHT22;15903;49.008;8.394;2023-03-04T11:07:09;5.60;99.90
28747;DHT22;15903;49.008;8.394;2023-03-04T11:09:36;5.60;99.90
28747;DHT22;15903;49.008;8.394;2023-03-04T11:12:05;5.60;99.90
28747;DHT22;15903;49.008;8.394;2023-03-04T11:14:54;5.60;99.90
28747;DHT22;15903;49.008;8.394;2023-03-04T11:17:26;5.70;99.90
28747;DHT22;15903;49.008;8.394;2023-03-04T11:20:17;5.70;99.90
28747;DHT22;15903;49.008;8.394;2023-03-04T11:22:48;5.70;99.90
28747;DHT22;15903;49.008;8.394;2023-03-04T11:25:31;5.80;99.90
28747;DHT22;15903;49.008;8.394;2023-03-04T11:30:44;5.80;99.90
28747;DHT22;15903;49.008;8.394;2023-03-04T11:33:40;5.70;99.90
28747;DHT22;15903;49.008;8.394;2023-03-04T11:38:50;5.80;99.90
28747;DHT22;15903;49.008;8.394;2023-03-04T11:41:35;5.80;99.90
28747;DHT22;15903;49.008;8.394;2023-03-04T11:44:02;5.80;99.90
28747;DHT22;15903;49.008;8.394;2023-03-04T11:52:08;5.90;99.90
28747;DHT22;15903;49.008;8.394;2023-03-04T11:55:01;5.90;99.90
28747;DHT22;15903;49.008;8.394;2023-03-04T12:05:42;5.90;99.90
28747;DHT22;15903;49.008;8.394;2023-03-04T12:13:29;6.00;99.90
28747;DHT22;15903;49.008;8.394;2023-03-04T12:16:18;6.10;99.90
28747;DHT22;15903;49.008;8.394;2023-03-04T12:18:59;6.10;99.90
28747;DHT22;15903;49.008;8.394;2023-03-04T12:29:46;6.30;99.90
28747;DHT22;15903;49.008;8.394;2023-03-04T12:32:25;6.30;99.90
28747;DHT22;15903;49.008;8.394;2023-03-04T12:38:02;6.40;99.90
28747;DHT22;15903;49.008;8.394;2023-03-04T12:40:51;6.30;99.90
28747;DHT22;15903;49.008;8.394;2023-03-04T12:43:32;6.40;99.90
28747;DHT22;15903;49.008;8.394;2023-03-04T12:49:40;6.50;99.90
28747;DHT22;15903;49.008;8.394;2023-03-04T12:52:52;6.50;99.90
28747;DHT22;15903;49.008;8.394;2023-03-04T12:55:22;6.50;99.90
28747;DHT22;15903;49.008;8.394;2023-03-04T12:57:54;6.60;99.90
28747;DHT22;15903;49.008;8.394;2023-03-04T13:01:01;6.60;99.90
28747;DHT22;15903;49.008;8.394;2023-03-04T13:11:42;6.70;99.90
28747;DHT22;15903;49.008;8.394;2023-03-04T13:16:41;6.50;99.90
28747;DHT22;15903;49.008;8.394;2023-03-04T13:22:41;6.60;99.90
28747;DHT22;15903;49.008;8.394;2023-03-04T13:41:13;6.70;99.90
28747;DHT22;15903;49.008;8.394;2023-03-04T13:43:47;6.70;99.90
28747;DHT22;15903;49.008;8.394;2023-03-04T13:53:52;6.70;99.90
28747;DHT22;15903;49.008;8.394;2023-03-04T13:56:38;6.60;99.90
28747;DHT22;15903;49.008;8.394;2023-03-04T14:04:23;6.60;99.90
28747;DHT22;15903;49.008;8.394;2023-03-04T14:06:52;6.60;99.90
28747;DHT22;15903;49.008;8.394;2023-03-04T14:09:19;6.60;99.90
28747;DHT22;15903;49.008;8.394;2023-03-04T14:11:47;6.70;99.90
28747;DHT22;15903;49.008;8.394;2023-03-04T14:14:19;6.70;99.90
28747;DHT22;15903;49.008;8.394;2023-03-04T14:16:49;6.80;99.90
28747;DHT22;15903;49.008;8.394;2023-03-04T14:19:27;6.80;99.90
28747;DHT22;15903;49.008;8.394;2023-03-04T14:21:54;6.70;99.90
28747;DHT22;15903;49.008;8.394;2023-03-04T14:24:21;6.70;99.90
28747;DHT22;15903;49.008;8.394;2023-03-04T14:26:47;6.70;99.90
28747;DHT22;15903;49.008;8.394;2023-03-04T14:29:27;6.80;99.90
28747;DHT22;15903;49.008;8.394;2023-03-04T14:31:55;6.80;99.90
28747;DHT22;15903;49.008;8.394;2023-03-04T14:34:41;6.80;99.90
28747;DHT22;15903;49.008;8.394;2023-03-04T14:37:31;6.80;99.90
28747;DHT22;15903;49.008;8.394;2023-03-04T14:40:00;6.80;99.90
28747;DHT22;15903;49.008;8.394;2023-03-04T14:42:35;6.80;99.90
28747;DHT22;15903;49.008;8.394;2023-03-04T14:45:03;6.80;99.90
28747;DHT22;15903;49.008;8.394;2023-03-04T14:47:35;6.80;99.90
28747;DHT22;15903;49.008;8.394;2023-03-04T14:50:17;6.70;99.90
28747;DHT22;15903;49.008;8.394;2023-03-04T14:52:47;6.80;99.90
28747;DHT22;15903;49.008;8.394;2023-03-04T14:55:23;6.80;99.90
28747;DHT22;15903;49.008;8.394;2023-03-04T14:58:05;6.70;99.90
28747;DHT22;15903;49.008;8.394;2023-03-04T15:00:33;6.70;99.90
28747;DHT22;15903;49.008;8.394;2023-03-04T15:03:00;6.70;99.90
28747;DHT22;15903;49.008;8.394;2023-03-04T15:05:31;6.70;99.90
28747;DHT22;15903;49.008;8.394;2023-03-04T15:08:24;6.70;99.90
28747;DHT22;15903;49.008;8.394;2023-03-04T15:10:59;6.70;99.90
28747;DHT22;15903;49.008;8.394;2023-03-04T15:13:40;6.70;99.90
28747;DHT22;15903;49.008;8.394;2023-03-04T15:16:06;6.70;99.90
28747;DHT22;15903;49.008;8.394;2023-03-04T15:18:33;6.60;99.90
28747;DHT22;15903;49.008;8.394;2023-03-04T15:21:05;6.70;99.90
28747;DHT22;15903;49.008;8.394;2023-03-04T15:23:46;6.70;99.90
28747;DHT22;15903;49.008;8.394;2023-03-04T15:26:14;6.70;99.90
28747;DHT22;15903;49.008;8.394;2023-03-04T15:28:41;6.70;99.90
28747;DHT22;15903;49.008;8.394;2023-03-04T15:31:15;6.70;99.90
28747;DHT22;15903;49.008;8.394;2023-03-04T15:33:41;6.70;99.90
28747;DHT22;15903;49.008;8.394;2023-03-04T15:36:13;6.70;99.90
28747;DHT22;15903;49.008;8.394;2023-03-04T15:38:40;6.70;99.90
28747;DHT22;15903;49.008;8.394;2023-03-04T15:41:10;6.70;99.90
28747;DHT22;15903;49.008;8.394;2023-03-04T15:43:36;6.60;99.90
28747;DHT22;15903;49.008;8.394;2023-03-04T15:46:01;6.50;99.90
28747;DHT22;15903;49.008;8.394;2023-03-04T15:48:28;6.60;99.90
28747;DHT22;15903;49.008;8.394;2023-03-04T15:50:56;6.60;99.90
28747;DHT22;15903;49.008;8.394;2023-03-04T15:53:36;6.70;99.90
28747;DHT22;15903;49.008;8.394;2023-03-04T15:56:04;6.70;99.90
28747;DHT22;15903;49.008;8.394;2023-03-04T15:58:32;6.70;99.90
28747;DHT22;15903;49.008;8.394;2023-03-04T16:00:58;6.70;99.90
28747;DHT22;15903;49.008;8.394;2023-03-04T16:03:23;6.80;99.90
28747;DHT22;15903;49.008;8.394;2023-03-04T16:05:50;6.80;99.90
28747;DHT22;15903;49.008;8.394;2023-03-04T16:08:19;6.80;99.90
28747;DHT22;15903;49.008;8.394;2023-03-04T16:10:45;6.80;99.90
28747;DHT22;15903;49.008;8.394;2023-03-04T16:13:17;6.80;99.90
28747;DHT22;15903;49.008;8.394;2023-03-04T16:15:44;6.70;99.90
28747;DHT22;15903;49.008;8.394;2023-03-04T16:18:10;6.80;99.90
28747;DHT22;15903;49.008;8.394;2023-03-04T16:20:37;6.80;99.90
28747;DHT22;15903;49.008;8.394;2023-03-04T16:23:04;6.70;99.90
28747;DHT22;15903;49.008;8.394;2023-03-04T16:25:31;6.80;99.90
28747;DHT22;15903;49.008;8.394;2023-03-04T16:27:57;6.80;99.90
28747;DHT22;15903;49.008;8.394;2023-03-04T16:30:27;6.70;99.90
28747;DHT22;15903;49.008;8.394;2023-03-04T16:32:52;6.70;99.90
28747;DHT22;15903;49.008;8.394;2023-03-04T16:35:19;6.80;99.90
28747;DHT22;15903;49.008;8.394;2023-03-04T16:37:45;6.80;99.90
28747;DHT22;15903;49.008;8.394;2023-03-04T16:40:17;6.80;99.90
28747;DHT22;15903;49.008;8.394;2023-03-04T16:42:43;6.70;99.90
28747;DHT22;15903;49.008;8.394;2023-03-04T16:45:19;6.70;99.90
28747;DHT22;15903;49.008;8.394;2023-03-04T16:47:50;6.80;99.90
28747;DHT22;15903;49.008;8.394;2023-03-04T16:50:18;6.80;99.90
28747;DHT22;15903;49.008;8.394;2023-03-04T16:52:46;6.80;99.90
28747;DHT22;15903;49.008;8.394;2023-03-04T16:55:18;6.70;99.90
28747;DHT22;15903;49.008;8.394;2023-03-04T16:57:44;6.80;99.90
28747;DHT22;15903;49.008;8.394;2023-03-04T17:00:11;6.80;99.90
28747;DHT22;15903;49.008;8.394;2023-03-04T17:02:37;6.80;99.90
28747;DHT22;15903;49.008;8.394;2023-03-04T17:05:03;6.70;99.90
28747;DHT22;15903;49.008;8.394;2023-03-04T17:07:29;6.70;99.90
28747;DHT22;15903;49.008;8.394;2023-03-04T17:09:54;6.80;99.90
28747;DHT22;15903;49.008;8.394;2023-03-04T17:12:20;6.70;99.90
28747;DHT22;15903;49.008;8.394;2023-03-04T17:14:46;6.80;99.90
28747;DHT22;15903;49.008;8.394;2023-03-04T17:17:12;6.70;99.90
28747;DHT22;15903;49.008;8.394;2023-03-04T17:19:37;6.70;99.90
28747;DHT22;15903;49.008;8.394;2023-03-04T17:22:04;6.70;99.90
28747;DHT22;15903;49.008;8.394;2023-03-04T17:24:30;6.70;99.90
28747;DHT22;15903;49.008;8.394;2023-03-04T17:26:55;6.70;99.90
28747;DHT22;15903;49.008;8.394;2023-03-04T17:29:21;6.70;99.90
28747;DHT22;15903;49.008;8.394;2023-03-04T17:31:47;6.70;99.90
28747;DHT22;15903;49.008;8.394;2023-03-04T17:34:13;6.60;99.90
28747;DHT22;15903;49.008;8.394;2023-03-04T17:36:39;6.70;99.90